createdAt,value
2023-01-12T00:00:44.728Z,22.25
2023-01-12T00:01:47.439Z,20.50
2023-01-12T00:02:49.270Z,20.90
2023-01-12T00:03:52.836Z,19.05
2023-01-12T00:04:56.049Z,22.50
2023-01-12T00:05:58.687Z,25.52
2023-01-12T00:07:02.676Z,18.55
2023-01-12T00:08:05.358Z,19.42
2023-01-12T00:09:08.542Z,15.10
2023-01-12T00:10:11.890Z,19.13
2023-01-12T00:11:15.127Z,18.40
2023-01-12T00:12:18.117Z,16.92
2023-01-12T00:13:19.872Z,23.65
2023-01-12T00:14:22.678Z,21.52
2023-01-12T00:15:56.352Z,15.95
2023-01-12T00:17:00.547Z,18.65
2023-01-12T00:18:02.394Z,18.83
2023-01-12T00:19:10.718Z,15.90
2023-01-12T00:20:13.470Z,20.20
2023-01-12T00:21:15.920Z,15.95
2023-01-12T00:22:19.239Z,15.75
2023-01-12T00:23:22.094Z,12.98
2023-01-12T00:24:27.080Z,15.65
2023-01-12T00:25:28.874Z,13.85
2023-01-12T00:26:31.904Z,12.10
2023-01-12T00:27:35.170Z,15.90
2023-01-12T00:28:37.340Z,13.20
2023-01-12T00:29:40.163Z,14.38
2023-01-12T00:30:42.793Z,14.93
2023-01-12T00:31:45.895Z,9.23
2023-01-12T00:32:51.472Z,16.05
2023-01-12T00:33:53.372Z,16.20
2023-01-12T00:34:56.150Z,12.25
2023-01-12T00:36:02.267Z,15.50
2023-01-12T00:37:06.303Z,12.90
2023-01-12T00:38:08.134Z,13.80
2023-01-12T00:39:11.211Z,11.57
2023-01-12T00:40:13.199Z,13.48
2023-01-12T00:41:36.791Z,14.18
2023-01-12T00:42:57.152Z,11.23
2023-01-12T00:44:18.287Z,8.98
2023-01-12T00:45:23.008Z,13.65
2023-01-12T00:46:30.746Z,11.13
2023-01-12T00:47:33.742Z,10.48
2023-01-12T00:48:37.246Z,11.38
2023-01-12T00:49:41.111Z,13.40
2023-01-12T00:50:46.343Z,10.77
2023-01-12T00:51:48.133Z,11.05
2023-01-12T00:52:50.904Z,12.00
2023-01-12T00:53:52.727Z,13.43
2023-01-12T00:54:55.592Z,12.73
2023-01-12T00:56:01.152Z,13.35
2023-01-12T00:57:04.833Z,11.40
2023-01-12T00:58:06.659Z,20.08
2023-01-12T00:59:09.464Z,13.30
2023-01-12T01:00:13.345Z,16.30
2023-01-12T01:01:15.188Z,20.02
2023-01-12T01:02:18.182Z,14.18
2023-01-12T01:03:20.218Z,14.07
2023-01-12T01:04:24.917Z,12.27
2023-01-12T01:05:26.711Z,14.25
2023-01-12T01:06:29.625Z,15.05
2023-01-12T01:07:31.411Z,13.30
2023-01-12T01:08:37.186Z,15.52
2023-01-12T01:09:39.023Z,14.30
2023-01-12T01:10:41.747Z,14.65
2023-01-12T01:11:43.560Z,12.27
2023-01-12T01:12:46.405Z,13.35
2023-01-12T01:13:49.132Z,16.75
2023-01-12T01:14:53.609Z,13.35
2023-01-12T01:15:55.877Z,12.15
2023-01-12T01:16:58.718Z,17.25
2023-01-12T01:18:00.577Z,11.80
2023-01-12T01:19:04.678Z,16.63
2023-01-12T01:20:09.268Z,17.00
2023-01-12T01:21:12.819Z,15.10
2023-01-12T01:22:14.880Z,13.40
2023-01-12T01:23:17.729Z,12.90
2023-01-12T01:24:19.657Z,14.00
2023-01-12T01:25:22.618Z,16.55
2023-01-12T01:26:24.504Z,15.00
2023-01-12T01:27:27.229Z,16.17
2023-01-12T01:28:29.375Z,15.15
2023-01-12T01:29:32.198Z,16.80
2023-01-12T01:30:34.438Z,13.98
2023-01-12T01:31:38.127Z,16.10
2023-01-12T01:32:39.992Z,16.70
2023-01-12T01:33:43.249Z,16.25
2023-01-12T01:34:46.401Z,19.98
2023-01-12T01:35:50.718Z,18.02
2023-01-12T01:36:52.520Z,16.92
2023-01-12T01:37:55.386Z,20.42
2023-01-12T01:38:57.325Z,13.35
2023-01-12T01:40:00.053Z,15.00
2023-01-12T01:41:02.223Z,16.02
2023-01-12T01:42:05.031Z,14.90
2023-01-12T01:43:09.109Z,14.32
2023-01-12T01:44:45.750Z,17.48
2023-01-12T01:45:54.090Z,18.67
2023-01-12T01:47:00.194Z,16.63
2023-01-12T01:48:02.487Z,15.98
2023-01-12T01:49:13.701Z,16.23
2023-01-12T01:50:19.970Z,16.15
2023-01-12T01:51:23.218Z,15.63
2023-01-12T01:52:29.593Z,14.98
2023-01-12T01:53:34.359Z,15.88
2023-01-12T01:54:40.512Z,15.25
2023-01-12T01:55:48.331Z,13.93
2023-01-12T01:56:52.318Z,18.10
2023-01-12T01:57:57.084Z,19.88
2023-01-12T01:59:02.169Z,15.05
2023-01-12T02:00:06.507Z,18.45
2023-01-12T02:01:09.643Z,15.43
2023-01-12T02:02:12.183Z,15.70
2023-01-12T02:03:17.016Z,14.93
2023-01-12T02:04:18.927Z,18.90
2023-01-12T02:05:25.026Z,16.35
2023-01-12T02:06:29.076Z,18.40
2023-01-12T02:07:31.882Z,17.10
2023-01-12T02:08:38.798Z,15.25
2023-01-12T02:09:42.128Z,19.05
2023-01-12T02:10:44.012Z,16.50
2023-01-12T02:12:05.167Z,16.15
2023-01-12T02:13:36.783Z,14.95
2023-01-12T02:14:57.725Z,16.00
2023-01-12T02:16:21.498Z,15.00
2023-01-12T02:17:35.022Z,15.07
2023-01-12T02:18:41.987Z,16.92
2023-01-12T02:20:17.871Z,19.77
2023-01-12T02:21:47.171Z,16.95
2023-01-12T02:23:22.103Z,18.63
2023-01-12T02:24:48.873Z,15.55
2023-01-12T02:26:06.394Z,17.02
2023-01-12T02:27:29.885Z,18.52
2023-01-12T02:28:55.308Z,14.35
2023-01-12T02:30:41.380Z,14.85
2023-01-12T02:31:49.008Z,17.23
2023-01-12T02:32:56.485Z,17.13
2023-01-12T02:34:09.209Z,17.52
2023-01-12T02:35:17.823Z,16.42
2023-01-12T02:36:25.655Z,12.25
2023-01-12T02:37:34.086Z,14.38
2023-01-12T02:38:38.291Z,17.48
2023-01-12T02:39:45.058Z,14.07
2023-01-12T02:40:54.639Z,13.43
2023-01-12T02:42:23.068Z,14.00
2023-01-12T02:43:29.781Z,14.55
2023-01-12T02:44:38.953Z,15.25
2023-01-12T02:45:45.848Z,15.52
2023-01-12T02:46:51.142Z,15.02
2023-01-12T02:47:57.769Z,16.40
2023-01-12T02:49:01.945Z,25.65
2023-01-12T02:50:08.816Z,13.68
2023-01-12T02:51:14.327Z,18.45
2023-01-12T02:52:18.746Z,12.25
2023-01-12T02:53:24.763Z,15.15
2023-01-12T02:54:29.079Z,16.17
2023-01-12T02:55:31.367Z,16.48
2023-01-12T02:56:35.619Z,18.65
2023-01-12T02:57:37.974Z,14.60
2023-01-12T02:58:43.942Z,14.88
2023-01-12T02:59:46.956Z,17.80
2023-01-12T03:00:52.128Z,16.50
2023-01-12T03:01:59.282Z,16.13
2023-01-12T03:03:02.147Z,18.63
2023-01-12T03:04:06.063Z,18.00
2023-01-12T03:05:09.962Z,15.75
2023-01-12T03:06:39.864Z,14.05
2023-01-12T03:07:46.869Z,16.38
2023-01-12T03:08:50.836Z,14.00
2023-01-12T03:09:55.206Z,15.95
2023-01-12T03:11:12.043Z,17.05
2023-01-12T03:12:15.398Z,16.75
2023-01-12T03:13:19.222Z,17.60
2023-01-12T03:14:23.372Z,17.45
2023-01-12T03:15:28.761Z,16.15
2023-01-12T03:16:34.663Z,15.23
2023-01-12T03:17:40.353Z,15.65
2023-01-12T03:18:47.148Z,16.13
2023-01-12T03:19:50.412Z,15.40
2023-01-12T03:20:56.057Z,15.63
2023-01-12T03:22:00.552Z,14.60
2023-01-12T03:23:07.513Z,17.55
2023-01-12T03:24:13.191Z,17.65
2023-01-12T03:25:17.195Z,14.30
2023-01-12T03:26:23.957Z,19.42
2023-01-12T03:27:28.922Z,16.30
2023-01-12T03:28:35.157Z,19.77
2023-01-12T03:29:39.934Z,16.83
2023-01-12T03:30:45.298Z,15.75
2023-01-12T03:31:47.325Z,14.15
2023-01-12T03:32:51.928Z,15.05
2023-01-12T03:33:54.826Z,10.75
2023-01-12T03:34:57.655Z,13.77
2023-01-12T03:36:06.311Z,16.17
2023-01-12T03:37:12.982Z,17.15
2023-01-12T03:38:20.495Z,16.30
2023-01-12T03:39:26.929Z,13.95
2023-01-12T03:40:30.610Z,15.93
2023-01-12T03:41:40.745Z,12.95
2023-01-12T03:42:48.144Z,13.20
2023-01-12T03:43:52.115Z,15.90
2023-01-12T03:44:59.633Z,16.38
2023-01-12T03:46:08.062Z,13.15
2023-01-12T03:47:13.774Z,14.45
2023-01-12T03:48:22.372Z,13.43
2023-01-12T03:49:28.018Z,15.40
2023-01-12T03:50:35.883Z,14.02
2023-01-12T03:51:40.959Z,12.15
2023-01-12T03:52:44.723Z,15.65
2023-01-12T03:53:49.242Z,13.30
2023-01-12T03:54:53.718Z,14.75
2023-01-12T03:55:58.172Z,14.75
2023-01-12T03:57:01.829Z,14.48
2023-01-12T03:58:04.188Z,23.92
2023-01-12T03:59:07.033Z,18.13
2023-01-12T04:00:12.044Z,20.67
2023-01-12T04:01:17.712Z,16.77
2023-01-12T04:02:19.583Z,18.35
2023-01-12T04:03:24.547Z,15.02
2023-01-12T04:04:26.508Z,14.40
2023-01-12T04:05:29.577Z,12.73
2023-01-12T04:06:31.376Z,14.93
2023-01-12T04:07:34.213Z,17.55
2023-01-12T04:08:36.247Z,14.25
2023-01-12T04:09:39.093Z,15.68
2023-01-12T04:10:41.128Z,13.88
2023-01-12T04:12:01.574Z,16.50
2023-01-12T04:13:04.483Z,13.75
2023-01-12T04:14:06.471Z,14.50
2023-01-12T04:15:09.815Z,15.60
2023-01-12T04:16:11.873Z,15.05
2023-01-12T04:17:15.707Z,14.55
2023-01-12T04:18:17.729Z,15.38
2023-01-12T04:19:21.810Z,15.80
2023-01-12T04:20:24.795Z,13.63
2023-01-12T04:21:45.307Z,16.27
2023-01-12T04:22:47.700Z,14.82
2023-01-12T04:23:49.516Z,21.08
2023-01-12T04:24:52.678Z,16.45
2023-01-12T04:25:54.556Z,19.23
2023-01-12T04:26:57.774Z,15.82
2023-01-12T04:28:01.539Z,18.13
2023-01-12T04:29:03.430Z,16.23
2023-01-12T04:30:07.233Z,16.88
2023-01-12T04:31:09.421Z,18.02
2023-01-12T04:32:12.614Z,17.55
2023-01-12T04:33:14.529Z,16.63
2023-01-12T04:34:17.300Z,19.67
2023-01-12T04:35:20.544Z,19.00
2023-01-12T04:36:23.366Z,18.23
2023-01-12T04:37:25.352Z,19.55
2023-01-12T04:38:28.074Z,22.20
2023-01-12T04:39:30.285Z,17.48
2023-01-12T04:40:33.057Z,16.92
2023-01-12T04:41:34.808Z,17.05
2023-01-12T04:42:55.345Z,21.55
2023-01-12T04:43:58.156Z,21.08
2023-01-12T04:44:59.906Z,19.52
2023-01-12T04:46:06.422Z,16.33
2023-01-12T04:47:08.213Z,20.48
2023-01-12T04:48:13.163Z,18.50
2023-01-12T04:49:15.083Z,18.42
2023-01-12T04:50:17.917Z,25.58
2023-01-12T04:51:22.128Z,18.35
2023-01-12T04:52:24.345Z,19.25
2023-01-12T04:53:27.459Z,20.85
2023-01-12T04:54:29.362Z,19.85
2023-01-12T04:55:32.245Z,18.17
2023-01-12T04:56:34.141Z,18.40
2023-01-12T04:57:36.912Z,18.15
2023-01-12T04:58:38.912Z,19.15
2023-01-12T04:59:41.679Z,15.10
2023-01-12T05:00:43.595Z,18.50
2023-01-12T05:01:46.605Z,19.05
2023-01-12T05:02:48.728Z,19.27
2023-01-12T05:03:51.594Z,16.42
2023-01-12T05:04:53.472Z,17.80
2023-01-12T05:05:56.251Z,17.48
2023-01-12T05:06:59.416Z,18.23
2023-01-12T05:08:21.324Z,19.13
2023-01-12T05:09:41.791Z,18.20
2023-01-12T05:10:44.543Z,14.57
2023-01-12T05:11:46.356Z,15.73
2023-01-12T05:12:49.071Z,15.60
2023-01-12T05:13:50.915Z,19.45
2023-01-12T05:14:53.938Z,20.33
2023-01-12T05:15:55.700Z,17.85
2023-01-12T05:16:59.505Z,20.48
2023-01-12T05:18:01.270Z,19.10
2023-01-12T05:19:04.027Z,18.83
2023-01-12T05:20:07.394Z,20.08
2023-01-12T05:21:10.134Z,16.73
2023-01-12T05:22:13.296Z,17.42
2023-01-12T05:23:16.097Z,16.63
2023-01-12T05:24:17.914Z,18.15
2023-01-12T05:25:20.687Z,20.20
2023-01-12T05:26:22.488Z,21.02
2023-01-12T05:27:25.244Z,20.27
2023-01-12T05:28:27.539Z,17.55
2023-01-12T05:29:30.364Z,15.30
2023-01-12T05:30:32.335Z,15.95
2023-01-12T05:31:35.389Z,20.65
2023-01-12T05:32:38.134Z,16.90
2023-01-12T05:33:42.267Z,17.63
2023-01-12T05:34:44.303Z,18.63
2023-01-12T05:35:47.336Z,18.35
2023-01-12T05:36:49.338Z,18.65
2023-01-12T05:37:55.683Z,20.83
2023-01-12T05:38:57.603Z,19.08
2023-01-12T05:40:00.375Z,19.63
2023-01-12T05:41:03.696Z,19.73
2023-01-12T05:42:24.334Z,22.05
2023-01-12T05:43:44.603Z,20.73
2023-01-12T05:44:47.567Z,21.60
2023-01-12T05:45:49.358Z,22.75
2023-01-12T05:46:52.261Z,22.20
2023-01-12T05:47:57.907Z,20.75
2023-01-12T05:49:00.670Z,19.33
2023-01-12T05:50:02.489Z,19.67
2023-01-12T05:51:08.737Z,21.02
2023-01-12T05:52:11.929Z,23.52
2023-01-12T05:53:16.046Z,19.92
2023-01-12T05:54:17.920Z,23.83
2023-01-12T05:55:20.721Z,22.88
2023-01-12T05:56:25.731Z,16.15
2023-01-12T05:57:30.513Z,21.27
2023-01-12T05:58:32.306Z,22.92
2023-01-12T05:59:35.043Z,21.08
2023-01-12T06:00:36.883Z,20.77
2023-01-12T06:01:40.401Z,19.00
2023-01-12T06:02:42.254Z,23.48
2023-01-12T06:03:45.083Z,21.95
2023-01-12T06:04:46.988Z,18.08
2023-01-12T06:05:54.039Z,18.33
2023-01-12T06:06:55.937Z,21.90
2023-01-12T06:07:59.120Z,20.27
2023-01-12T06:09:02.436Z,21.98
2023-01-12T06:10:06.733Z,23.27
2023-01-12T06:11:29.196Z,21.75
2023-01-12T06:12:49.170Z,23.02
2023-01-12T06:13:58.111Z,28.83
2023-01-12T06:14:59.983Z,24.33
2023-01-12T06:16:05.133Z,24.13
2023-01-12T06:17:07.053Z,22.25
2023-01-12T06:18:09.827Z,20.60
2023-01-12T06:19:12.781Z,24.33
2023-01-12T06:20:17.210Z,20.77
2023-01-12T06:21:19.163Z,22.67
2023-01-12T06:22:21.971Z,19.98
2023-01-12T06:23:35.633Z,18.60
2023-01-12T06:24:39.989Z,21.67
2023-01-12T06:25:41.782Z,24.90
2023-01-12T06:26:45.242Z,25.90
2023-01-12T06:27:47.144Z,27.08
2023-01-12T06:28:49.898Z,24.58
2023-01-12T06:29:52.020Z,26.02
2023-01-12T06:30:58.382Z,25.63
2023-01-12T06:32:01.138Z,22.52
2023-01-12T06:33:03.380Z,22.85
2023-01-12T06:34:07.839Z,25.00
2023-01-12T06:35:18.698Z,25.63
2023-01-12T06:36:22.103Z,19.88
2023-01-12T06:37:23.929Z,29.02
2023-01-12T06:38:28.765Z,24.60
2023-01-12T06:39:30.717Z,27.88
2023-01-12T06:40:34.896Z,23.60
2023-01-12T06:41:55.042Z,24.38
2023-01-12T06:42:58.193Z,29.35
2023-01-12T06:44:00.105Z,24.30
2023-01-12T06:45:03.994Z,24.88
2023-01-12T06:46:06.273Z,25.23
2023-01-12T06:47:09.005Z,26.90
2023-01-12T06:48:11.844Z,28.25
2023-01-12T06:49:13.805Z,28.40
2023-01-12T06:50:17.216Z,23.75
2023-01-12T06:51:19.376Z,26.15
2023-01-12T06:52:24.344Z,25.52
2023-01-12T06:53:26.116Z,25.58
2023-01-12T06:54:28.827Z,26.55
2023-01-12T06:55:31.092Z,24.98
2023-01-12T06:56:35.544Z,25.77
2023-01-12T06:57:37.330Z,30.67
2023-01-12T06:58:40.181Z,29.77
2023-01-12T06:59:42.190Z,24.67
2023-01-12T07:00:45.525Z,28.63
2023-01-12T07:01:47.685Z,23.88
2023-01-12T07:02:51.659Z,23.52
2023-01-12T07:03:53.555Z,26.63
2023-01-12T07:04:56.343Z,27.65
2023-01-12T07:05:58.618Z,28.30
2023-01-12T07:07:01.515Z,27.20
2023-01-12T07:08:03.481Z,26.73
2023-01-12T07:09:06.360Z,26.92
2023-01-12T07:10:10.527Z,27.17
2023-01-12T07:11:14.868Z,25.80
2023-01-12T07:12:19.294Z,28.98
2023-01-12T07:13:21.913Z,33.22
2023-01-12T07:14:24.675Z,28.50
2023-01-12T07:15:26.470Z,33.55
2023-01-12T07:16:29.612Z,30.05
2023-01-12T07:17:32.539Z,31.80
2023-01-12T07:18:34.327Z,26.45
2023-01-12T07:19:37.032Z,27.48
2023-01-12T07:20:38.907Z,30.92
2023-01-12T07:21:41.667Z,31.95
2023-01-12T07:22:44.409Z,30.20
2023-01-12T07:23:46.212Z,33.70
2023-01-12T07:24:48.994Z,28.27
2023-01-12T07:25:50.772Z,34.33
2023-01-12T07:26:53.855Z,32.10
2023-01-12T07:27:58.277Z,31.48
2023-01-12T07:29:02.118Z,30.42
2023-01-12T07:30:04.860Z,29.80
2023-01-12T07:31:09.190Z,29.65
2023-01-12T07:32:11.076Z,32.50
2023-01-12T07:33:16.649Z,28.80
2023-01-12T07:34:20.511Z,29.23
2023-01-12T07:35:25.017Z,32.90
2023-01-12T07:36:27.872Z,33.30
2023-01-12T07:37:29.635Z,32.80
2023-01-12T07:38:32.517Z,36.00
2023-01-12T07:39:34.724Z,34.08
2023-01-12T07:40:37.874Z,39.95
2023-01-12T07:41:58.203Z,33.45
2023-01-12T07:43:03.732Z,30.45
2023-01-12T07:44:05.703Z,34.92
2023-01-12T07:45:09.275Z,33.60
2023-01-12T07:46:11.126Z,33.10
2023-01-12T07:47:13.846Z,28.73
2023-01-12T07:48:16.710Z,33.80
2023-01-12T07:49:18.901Z,30.52
2023-01-12T07:50:22.103Z,36.75
2023-01-12T07:51:24.092Z,28.65
2023-01-12T07:52:45.566Z,33.58
2023-01-12T07:53:48.036Z,32.85
2023-01-12T07:54:51.102Z,31.83
2023-01-12T07:55:52.894Z,30.83
2023-01-12T07:56:55.698Z,36.53
2023-01-12T07:57:58.425Z,37.92
2023-01-12T07:59:02.630Z,35.40
2023-01-12T08:00:05.265Z,33.45
2023-01-12T08:01:08.027Z,31.92
2023-01-12T08:02:13.926Z,30.80
2023-01-12T08:03:17.108Z,34.35
2023-01-12T08:04:19.994Z,31.00
2023-01-12T08:05:23.964Z,27.58
2023-01-12T08:06:25.874Z,32.83
2023-01-12T08:07:28.748Z,28.25
2023-01-12T08:08:30.652Z,24.27
2023-01-12T08:09:33.487Z,32.13
2023-01-12T08:10:35.694Z,30.58
2023-01-12T08:11:38.546Z,35.45
2023-01-12T08:12:41.675Z,31.05
2023-01-12T08:13:44.529Z,31.85
2023-01-12T08:14:48.034Z,30.55
2023-01-12T08:15:52.431Z,28.13
2023-01-12T08:16:56.412Z,28.08
2023-01-12T08:18:03.347Z,30.42
2023-01-12T08:19:11.157Z,28.83
2023-01-12T08:20:16.424Z,26.45
2023-01-12T08:21:21.264Z,30.23
2023-01-12T08:22:26.745Z,28.92
2023-01-12T08:23:31.666Z,32.30
2023-01-12T08:24:37.784Z,33.65
2023-01-12T08:25:44.777Z,40.65
2023-01-12T08:26:49.286Z,36.30
2023-01-12T08:27:53.337Z,34.70
2023-01-12T08:28:58.903Z,34.70
2023-01-12T08:30:04.380Z,37.90
2023-01-12T08:31:09.350Z,39.70
2023-01-12T08:32:14.208Z,40.78
2023-01-12T08:33:17.258Z,42.03
2023-01-12T08:34:20.028Z,41.63
2023-01-12T08:35:24.149Z,42.10
2023-01-12T08:36:26.581Z,37.60
2023-01-12T08:37:30.314Z,43.53
2023-01-12T08:38:51.881Z,43.03
2023-01-12T08:39:54.053Z,44.33
2023-01-12T08:41:14.427Z,38.55
2023-01-12T08:42:17.337Z,38.45
2023-01-12T08:43:39.623Z,42.85
2023-01-12T08:44:42.693Z,39.83
2023-01-12T08:45:45.837Z,42.63
2023-01-12T08:46:51.786Z,41.72
2023-01-12T08:47:54.555Z,40.67
2023-01-12T08:48:56.474Z,38.47
2023-01-12T08:50:00.293Z,42.63
2023-01-12T08:51:02.355Z,39.03
2023-01-12T08:52:05.371Z,41.67
2023-01-12T08:53:07.796Z,37.10
2023-01-12T08:54:11.867Z,36.42
2023-01-12T08:55:14.792Z,38.28
2023-01-12T08:56:17.182Z,36.08
2023-01-12T08:57:20.024Z,36.65
2023-01-12T08:58:21.868Z,34.60
2023-01-12T08:59:25.724Z,33.55
2023-01-12T09:00:27.775Z,35.95
2023-01-12T09:01:32.209Z,32.00
2023-01-12T09:02:34.275Z,32.97
2023-01-12T09:03:37.190Z,29.42
2023-01-12T09:04:40.692Z,35.00
2023-01-12T09:05:44.240Z,27.77
2023-01-12T09:06:48.419Z,24.25
2023-01-12T09:07:50.234Z,27.05
2023-01-12T09:08:54.817Z,26.95
2023-01-12T09:09:57.704Z,24.90
2023-01-12T09:11:02.288Z,21.95
2023-01-12T09:12:05.744Z,25.73
2023-01-12T09:13:10.032Z,25.95
2023-01-12T09:14:14.187Z,24.67
2023-01-12T09:15:17.224Z,28.02
2023-01-12T09:16:21.203Z,26.25
2023-01-12T09:17:26.177Z,28.48
2023-01-12T09:18:28.019Z,29.48
2023-01-12T09:19:30.824Z,24.67
2023-01-12T09:20:34.178Z,25.38
2023-01-12T09:21:40.129Z,28.88
2023-01-12T09:22:41.966Z,27.88
2023-01-12T09:23:45.412Z,25.65
2023-01-12T09:24:48.339Z,23.20
2023-01-12T09:25:50.149Z,23.15
2023-01-12T09:26:52.887Z,27.38
2023-01-12T09:27:54.720Z,26.02
2023-01-12T09:28:59.140Z,21.58
2023-01-12T09:30:01.978Z,25.33
2023-01-12T09:31:05.754Z,24.98
2023-01-12T09:32:08.713Z,23.85
2023-01-12T09:33:12.551Z,19.10
2023-01-12T09:34:15.693Z,21.00
2023-01-12T09:35:19.824Z,20.30
2023-01-12T09:36:24.063Z,22.75
2023-01-12T09:37:27.014Z,22.17
2023-01-12T09:38:28.908Z,24.40
2023-01-12T09:39:31.639Z,23.75
2023-01-12T09:40:35.529Z,22.58
2023-01-12T09:41:57.269Z,23.65
2023-01-12T09:43:17.465Z,17.35
2023-01-12T09:44:41.304Z,23.88
2023-01-12T09:46:02.013Z,23.40
2023-01-12T09:47:07.995Z,20.63
2023-01-12T09:48:13.813Z,17.48
2023-01-12T09:49:18.174Z,18.17
2023-01-12T09:50:23.769Z,18.33
2023-01-12T09:51:29.169Z,17.67
2023-01-12T09:52:34.426Z,16.98
2023-01-12T09:53:39.646Z,19.10
2023-01-12T09:54:41.716Z,16.85
2023-01-12T09:55:52.994Z,16.42
2023-01-12T09:57:01.205Z,19.55
2023-01-12T09:58:21.742Z,17.10
2023-01-12T09:59:38.607Z,14.90
2023-01-12T10:00:41.473Z,17.65
2023-01-12T10:01:43.731Z,18.73
2023-01-12T10:02:48.675Z,16.63
2023-01-12T10:03:53.627Z,16.88
2023-01-12T10:04:57.862Z,16.05
2023-01-12T10:06:01.446Z,17.80
2023-01-12T10:07:04.455Z,13.98
2023-01-12T10:08:13.227Z,16.42
2023-01-12T10:09:18.276Z,15.88
2023-01-12T10:10:20.524Z,15.73
2023-01-12T10:11:27.970Z,15.95
2023-01-12T10:12:35.403Z,12.93
2023-01-12T10:14:10.123Z,12.73
2023-01-12T10:15:30.144Z,14.50
2023-01-12T10:16:38.700Z,11.93
2023-01-12T10:17:51.672Z,12.35
2023-01-12T10:19:00.293Z,12.55
2023-01-12T10:20:09.741Z,11.63
2023-01-12T10:21:12.688Z,11.52
2023-01-12T10:22:36.851Z,9.82
2023-01-12T10:23:39.727Z,14.52
2023-01-12T10:24:42.916Z,9.70
2023-01-12T10:25:48.502Z,10.13
2023-01-12T10:26:54.138Z,10.93
2023-01-12T10:27:58.294Z,10.77
2023-01-12T10:29:02.680Z,10.02
2023-01-12T10:30:12.520Z,13.60
2023-01-12T10:31:17.917Z,9.85
2023-01-12T10:32:23.253Z,8.52
2023-01-12T10:33:29.135Z,7.43
2023-01-12T10:34:50.162Z,11.70
2023-01-12T10:35:55.546Z,8.40
2023-01-12T10:37:08.849Z,9.82
2023-01-12T10:38:20.196Z,8.52
2023-01-12T10:39:42.709Z,9.40
2023-01-12T10:41:03.901Z,6.50
2023-01-12T10:42:31.854Z,7.40
2023-01-12T10:43:35.748Z,8.88
2023-01-12T10:44:37.610Z,9.38
2023-01-12T10:45:42.609Z,7.22
2023-01-12T10:47:08.936Z,8.65
2023-01-12T10:48:20.612Z,8.52
2023-01-12T10:49:25.057Z,7.60
2023-01-12T10:50:29.877Z,5.68
2023-01-12T10:51:35.941Z,6.35
2023-01-12T10:52:41.323Z,5.03
2023-01-12T10:53:46.704Z,6.63
2023-01-12T10:54:50.335Z,6.70
2023-01-12T10:55:52.532Z,7.20
2023-01-12T10:56:58.567Z,5.88
2023-01-12T10:58:00.841Z,6.30
2023-01-12T10:59:05.789Z,6.68
2023-01-12T11:00:19.900Z,7.28
2023-01-12T11:01:23.459Z,5.07
2023-01-12T11:02:26.617Z,8.77
2023-01-12T11:03:32.262Z,7.95
2023-01-12T11:04:39.181Z,5.38
2023-01-12T11:05:44.716Z,11.77
2023-01-12T11:06:57.723Z,8.27
2023-01-12T11:07:59.767Z,7.57
2023-01-12T11:09:19.097Z,7.00
2023-01-12T11:10:28.159Z,9.55
2023-01-12T11:11:32.811Z,7.70
2023-01-12T11:12:37.530Z,5.05
2023-01-12T11:13:40.252Z,7.18
2023-01-12T11:14:43.673Z,5.13
2023-01-12T11:15:54.735Z,8.23
2023-01-12T11:17:05.451Z,4.30
2023-01-12T11:18:30.193Z,5.13
2023-01-12T11:19:36.699Z,6.50
2023-01-12T11:20:43.412Z,5.68
2023-01-12T11:21:50.116Z,6.40
2023-01-12T11:22:55.347Z,6.82
2023-01-12T11:24:00.857Z,4.20
2023-01-12T11:25:06.684Z,5.75
2023-01-12T11:26:16.161Z,4.75
2023-01-12T11:27:21.544Z,5.90
2023-01-12T11:28:29.210Z,7.25
2023-01-12T11:29:37.189Z,8.85
2023-01-12T11:30:44.621Z,6.55
2023-01-12T11:31:48.594Z,5.30
2023-01-12T11:32:56.484Z,6.80
2023-01-12T11:34:01.898Z,6.00
2023-01-12T11:35:07.820Z,5.78
2023-01-12T11:36:16.062Z,9.85
2023-01-12T11:37:18.530Z,8.30
2023-01-12T11:38:24.332Z,7.60
2023-01-12T11:39:28.948Z,5.30
2023-01-12T11:40:33.792Z,5.13
2023-01-12T11:41:39.918Z,7.88
2023-01-12T11:43:00.672Z,6.88
2023-01-12T11:44:07.259Z,6.70
2023-01-12T11:45:14.198Z,5.10
2023-01-12T11:46:23.492Z,5.47
2023-01-12T11:47:30.180Z,4.43
2023-01-12T11:48:36.523Z,9.32
2023-01-12T11:49:43.450Z,11.40
2023-01-12T11:50:47.777Z,4.90
2023-01-12T11:51:56.015Z,7.05
2023-01-12T11:52:58.930Z,7.28
2023-01-12T11:54:01.877Z,6.43
2023-01-12T11:55:04.100Z,7.55
2023-01-12T11:56:15.164Z,5.30
2023-01-12T11:57:27.407Z,7.07
2023-01-12T11:58:33.456Z,4.95
2023-01-12T11:59:41.761Z,6.25
2023-01-12T12:00:52.547Z,6.28
2023-01-12T12:02:00.914Z,6.85
2023-01-12T12:03:20.577Z,6.25
2023-01-12T12:04:35.987Z,5.97
2023-01-12T12:05:44.337Z,7.75
2023-01-12T12:06:59.157Z,5.03
2023-01-12T12:08:13.475Z,7.63
2023-01-12T12:09:26.507Z,5.90
2023-01-12T12:10:34.778Z,7.07
2023-01-12T12:11:42.475Z,6.15
2023-01-12T12:12:52.445Z,5.03
2023-01-12T12:14:02.904Z,5.43
2023-01-12T12:15:21.747Z,6.03
2023-01-12T12:16:30.447Z,10.63
2023-01-12T12:17:41.901Z,5.25
2023-01-12T12:18:54.866Z,9.20
2023-01-12T12:20:05.520Z,6.88
2023-01-12T12:21:15.267Z,8.13
2023-01-12T12:22:27.650Z,6.15
2023-01-12T12:23:32.521Z,5.93
2023-01-12T12:24:56.636Z,3.80
2023-01-12T12:26:06.951Z,7.57
2023-01-12T12:27:16.582Z,9.07
2023-01-12T12:28:47.605Z,6.97
2023-01-12T12:30:08.408Z,4.60
2023-01-12T12:31:29.595Z,5.07
2023-01-12T12:32:55.670Z,7.72
2023-01-12T12:34:08.571Z,8.02
2023-01-12T12:35:24.132Z,7.32
2023-01-12T12:36:30.132Z,5.53
2023-01-12T12:37:46.216Z,6.68
2023-01-12T12:39:13.590Z,6.28
2023-01-12T12:40:26.083Z,7.47
2023-01-12T12:41:54.646Z,6.43
2023-01-12T12:43:22.489Z,7.07
2023-01-12T12:44:54.443Z,5.88
2023-01-12T12:46:05.131Z,4.93
2023-01-12T12:47:21.139Z,3.65
2023-01-12T12:48:28.989Z,9.27
2023-01-12T12:49:32.732Z,4.60
2023-01-12T12:50:39.705Z,7.30
2023-01-12T12:51:43.040Z,5.35
2023-01-12T12:52:50.940Z,3.80
2023-01-12T12:53:54.506Z,7.20
2023-01-12T12:54:58.195Z,5.00
2023-01-12T12:56:04.780Z,5.35
2023-01-12T12:57:07.595Z,4.90
2023-01-12T12:58:38.199Z,5.45
2023-01-12T12:59:56.683Z,8.75
2023-01-12T13:01:44.411Z,4.28
2023-01-12T13:02:58.711Z,3.58
2023-01-12T13:04:01.912Z,6.90
2023-01-12T13:05:11.210Z,5.28
2023-01-12T13:06:18.915Z,5.22
2023-01-12T13:07:22.426Z,6.63
2023-01-12T13:08:28.043Z,5.90
2023-01-12T13:09:36.384Z,8.60
2023-01-12T13:10:39.132Z,4.53
2023-01-12T13:11:50.277Z,4.82
2023-01-12T13:13:06.008Z,11.30
2023-01-12T13:14:19.861Z,5.85
2023-01-12T13:15:32.547Z,6.95
2023-01-12T13:16:53.762Z,8.02
2023-01-12T13:17:55.787Z,3.42
2023-01-12T13:19:06.559Z,5.15
2023-01-12T13:20:40.160Z,7.70
2023-01-12T13:21:58.345Z,6.25
2023-01-12T13:23:00.461Z,5.00
2023-01-12T13:24:26.658Z,3.58
2023-01-12T13:25:52.726Z,8.60
2023-01-12T13:27:00.407Z,5.47
2023-01-12T13:28:19.973Z,4.45
2023-01-12T13:29:49.841Z,6.47
2023-01-12T13:30:53.938Z,6.30
2023-01-12T13:31:57.690Z,5.22
2023-01-12T13:33:01.418Z,4.68
2023-01-12T13:34:28.412Z,4.65
2023-01-12T13:36:10.716Z,6.68
2023-01-12T13:37:21.674Z,4.68
2023-01-12T13:38:51.197Z,6.32
2023-01-12T13:40:00.151Z,7.28
2023-01-12T13:41:04.768Z,4.47
2023-01-12T13:42:27.324Z,4.80
2023-01-12T13:43:33.362Z,7.20
2023-01-12T13:44:38.923Z,6.13
2023-01-12T13:45:46.780Z,3.20
2023-01-12T13:46:51.270Z,6.10
2023-01-12T13:47:53.782Z,8.88
2023-01-12T13:48:57.571Z,6.68
2023-01-12T13:50:01.870Z,9.88
2023-01-12T13:51:21.861Z,8.73
2023-01-12T13:52:29.246Z,8.35
2023-01-12T13:53:33.533Z,6.15
2023-01-12T13:54:36.489Z,6.22
2023-01-12T13:55:39.665Z,6.30
2023-01-12T13:56:43.682Z,6.05
2023-01-12T13:57:55.967Z,7.07
2023-01-12T13:59:01.931Z,5.07
2023-01-12T14:00:09.130Z,4.57
2023-01-12T14:01:19.308Z,7.60
2023-01-12T14:02:21.417Z,7.55
2023-01-12T14:03:34.573Z,3.63
2023-01-12T14:04:57.677Z,4.60
2023-01-12T14:06:06.577Z,4.30
2023-01-12T14:07:15.081Z,4.82
2023-01-12T14:08:46.334Z,6.93
2023-01-12T14:10:01.763Z,9.98
2023-01-12T14:11:16.089Z,7.70
2023-01-12T14:12:47.389Z,8.13
2023-01-12T14:13:58.550Z,6.28
2023-01-12T14:15:40.619Z,5.53
2023-01-12T14:17:05.264Z,6.70
2023-01-12T14:18:11.076Z,5.85
2023-01-12T14:19:27.386Z,9.82
2023-01-12T14:20:31.714Z,7.22
2023-01-12T14:21:37.545Z,5.13
2023-01-12T14:22:39.554Z,6.97
2023-01-12T14:23:42.347Z,6.28
2023-01-12T14:24:44.108Z,7.70
2023-01-12T14:25:47.896Z,8.30
2023-01-12T14:26:52.252Z,7.38
2023-01-12T14:27:58.566Z,6.22